Time;durP1;ratioP1;P1;durP2;ratioP2;P2;SDS_P1;SDS_P2;PMS_P1;PMS_P2;Temp;Humidity;BMP_temperature;BMP_pressure;BME280_temperature;BME280_humidity;BME280_pressure;Samples;Min_cycle;Max_cycle;Signal;HPM_P1;HPM_P2
2021/07/07 00:00:08;;;;;;;9.75;8.85;;;;;;;;;;5030142;28;20020;-69
2021/07/07 00:02:33;;;;;;;10.93;8.75;;;;;;;;;;5026532;28;20048;-69
2021/07/07 00:04:58;;;;;;;8.05;7.32;;;;;;;;;;5027987;28;20453;-69
2021/07/07 00:07:24;;;;;;;9.73;8.82;;;;;;;;;;5028177;28;20017;-69
2021/07/07 00:09:49;;;;;;;10.27;9.27;;;;;;;;;;5027092;28;20048;-69
2021/07/07 00:12:14;;;;;;;9.82;8.82;;;;;;;;;;5028373;28;20032;-69
2021/07/07 00:14:40;;;;;;;10.75;9.77;;;;;;;;;;5027717;28;20033;-69
2021/07/07 00:17:05;;;;;;;12.13;11.02;;;;;;;;;;5027736;28;20034;-68
2021/07/07 00:19:30;;;;;;;11.50;10.50;;;;;;;;;;5027840;28;20041;-69
2021/07/07 00:21:58;;;;;;;10.82;9.90;;;;;;;;;;5027900;28;20034;-69
2021/07/07 00:24:24;;;;;;;10.05;8.43;;;;;;;;;;5028512;28;20009;-69
2021/07/07 00:26:50;;;;;;;9.20;8.50;;;;;;;;;;5036949;28;20029;-70
2021/07/07 00:29:15;;;;;;;10.35;9.48;;;;;;;;;;5046510;28;20040;-69
2021/07/07 00:31:41;;;;;;;10.57;9.65;;;;;;;;;;5046453;28;20104;-69
2021/07/07 00:34:06;;;;;;;12.48;11.23;;;;;;;;;;5047173;28;20460;-69
2021/07/07 00:36:31;;;;;;;11.90;10.77;;;;;;;;;;5047680;28;20021;-70
2021/07/07 00:38:56;;;;;;;11.30;10.38;;;;;;;;;;5041321;28;20032;-70
2021/07/07 00:41:22;;;;;;;11.95;10.75;;;;;;;;;;5027176;28;20464;-69
2021/07/07 00:43:47;;;;;;;14.55;12.30;;;;;;;;;;5026947;28;20445;-70
2021/07/07 00:46:12;;;;;;;11.68;10.43;;;;;;;;;;5026143;28;20116;-70
2021/07/07 00:48:37;;;;;;;20.63;15.98;;;;;;;;;;5026012;28;20036;-70
2021/07/07 00:51:03;;;;;;;9.32;8.48;;;;;;;;;;5028533;28;20522;-70
2021/07/07 00:53:28;;;;;;;12.95;11.63;;;;;;;;;;5026119;28;20409;-70
2021/07/07 00:55:55;;;;;;;10.32;9.40;;;;;;;;;;5036757;28;20040;-70
2021/07/07 00:58:21;;;;;;;10.93;9.98;;;;;;;;;;5046166;28;20040;-70
2021/07/07 01:00:47;;;;;;;9.85;8.82;;;;;;;;;;5047568;28;20049;-71
2021/07/07 01:03:12;;;;;;;11.18;10.10;;;;;;;;;;5049139;28;20041;-71
2021/07/07 01:05:37;;;;;;;8.63;7.88;;;;;;;;;;5049215;28;20037;-71
2021/07/07 01:08:02;;;;;;;12.70;9.43;;;;;;;;;;5050912;28;20677;-70
2021/07/07 01:10:28;;;;;;;10.32;9.32;;;;;;;;;;5030102;28;20049;-71
2021/07/07 01:12:54;;;;;;;10.75;8.93;;;;;;;;;;5029080;28;20036;-70
2021/07/07 01:15:19;;;;;;;10.75;9.75;;;;;;;;;;5032964;28;20010;-70
2021/07/07 01:17:46;;;;;;;10.38;9.52;;;;;;;;;;5030680;28;20394;-70
2021/07/07 01:20:22;;;;;;;12.68;11.55;;;;;;;;;;5029216;28;20125;-70
2021/07/07 01:22:48;;;;;;;8.77;8.07;;;;;;;;;;5030316;28;20057;-71
2021/07/07 01:25:14;;;;;;;9.77;8.98;;;;;;;;;;5029556;28;20403;-71
2021/07/07 01:27:40;;;;;;;11.57;10.38;;;;;;;;;;5030369;28;20021;-70
2021/07/07 01:30:07;;;;;;;7.97;7.28;;;;;;;;;;5032880;28;20013;-70
2021/07/07 01:32:32;;;;;;;9.82;8.82;;;;;;;;;;5029974;28;20037;-70
2021/07/07 01:34:57;;;;;;;7.65;6.80;;;;;;;;;;5030293;28;20033;-70
2021/07/07 01:37:24;;;;;;;13.40;6.72;;;;;;;;;;5029209;28;20041;-70
2021/07/07 01:39:50;;;;;;;8.38;7.15;;;;;;;;;;5029573;28;20014;-70
2021/07/07 01:42:15;;;;;;;7.78;7.13;;;;;;;;;;5032025;28;20029;-70
2021/07/07 01:44:40;;;;;;;7.45;6.85;;;;;;;;;;5030147;28;20057;-70
2021/07/07 01:47:06;;;;;;;6.45;5.95;;;;;;;;;;5030234;28;20022;-70
2021/07/07 01:49:32;;;;;;;7.55;6.30;;;;;;;;;;5028832;28;20041;-70
2021/07/07 01:51:57;;;;;;;6.30;5.80;;;;;;;;;;5028752;28;20033;-70
2021/07/07 01:54:22;;;;;;;6.10;5.60;;;;;;;;;;5031140;28;20017;-70
2021/07/07 01:56:47;;;;;;;7.38;6.75;;;;;;;;;;5038650;28;20099;-69
2021/07/07 01:59:13;;;;;;;6.57;6.07;;;;;;;;;;5049859;28;20064;-69
2021/07/07 02:01:38;;;;;;;8.10;7.28;;;;;;;;;;5049890;28;20040;-68
2021/07/07 02:04:03;;;;;;;7.03;6.53;;;;;;;;;;5049661;28;20445;-68
2021/07/07 02:06:29;;;;;;;8.02;7.35;;;;;;;;;;5052070;28;20021;-68
2021/07/07 02:08:55;;;;;;;6.72;6.22;;;;;;;;;;5045710;28;20075;-68
2021/07/07 02:11:20;;;;;;;10.82;9.88;;;;;;;;;;5029720;28;20052;-68
2021/07/07 02:13:45;;;;;;;6.80;6.20;;;;;;;;;;5029263;28;20029;-68
2021/07/07 02:16:10;;;;;;;7.53;6.93;;;;;;;;;;5029332;28;20033;-68
2021/07/07 02:18:36;;;;;;;8.70;7.43;;;;;;;;;;5028912;28;20486;-69
2021/07/07 02:21:01;;;;;;;7.85;7.15;;;;;;;;;;5031894;28;20021;-68
2021/07/07 02:23:27;;;;;;;7.20;6.70;;;;;;;;;;5029115;28;20049;-68
2021/07/07 02:25:53;;;;;;;6.93;6.43;;;;;;;;;;5037856;28;20033;-69
2021/07/07 02:28:21;;;;;;;8.02;7.40;;;;;;;;;;5049478;28;20028;-68
2021/07/07 02:30:46;;;;;;;7.63;7.05;;;;;;;;;;5047947;28;20021;-68
2021/07/07 02:33:12;;;;;;;7.00;6.43;;;;;;;;;;5050971;28;20055;-68
2021/07/07 02:35:39;;;;;;;6.85;6.35;;;;;;;;;;5048673;28;20061;-68
2021/07/07 02:38:05;;;;;;;7.03;6.30;;;;;;;;;;5047978;28;20107;-68
2021/07/07 02:40:32;;;;;;;9.00;7.47;;;;;;;;;;5032756;28;20034;-67
2021/07/07 02:42:57;;;;;;;8.20;7.45;;;;;;;;;;5028455;28;20040;-68
2021/07/07 02:45:24;;;;;;;7.82;7.22;;;;;;;;;;5030053;28;20697;-68
2021/07/07 02:47:49;;;;;;;8.32;7.57;;;;;;;;;;5028992;28;20395;-68
2021/07/07 02:50:17;;;;;;;8.85;6.22;;;;;;;;;;5026926;28;20026;-68
2021/07/07 02:52:43;;;;;;;7.38;6.78;;;;;;;;;;5028408;28;20029;-68
2021/07/07 02:55:09;;;;;;;8.52;7.68;;;;;;;;;;5020196;28;20041;-68
2021/07/07 02:57:56;;;;;;;8.25;7.55;;;;;;;;;;5028630;28;20376;-68
2021/07/07 03:00:20;;;;;;;12.20;11.05;;;;;;;;;;5031015;28;20363;-68
2021/07/07 03:02:45;;;;;;;8.43;7.28;;;;;;;;;;5028159;28;20029;-67
2021/07/07 03:05:10;;;;;;;9.40;8.60;;;;;;;;;;5028510;28;20038;-68
2021/07/07 03:07:35;;;;;;;7.00;6.50;;;;;;;;;;5027686;28;20536;-68
2021/07/07 03:10:07;;;;;;;8.30;7.65;;;;;;;;;;5028013;28;20033;-68
2021/07/07 03:12:32;;;;;;;7.90;7.20;;;;;;;;;;5034778;28;20020;-68
2021/07/07 03:14:58;;;;;;;8.73;7.90;;;;;;;;;;5049220;28;20017;-68
2021/07/07 03:17:23;;;;;;;8.20;7.38;;;;;;;;;;5048545;28;20659;-68
2021/07/07 03:19:48;;;;;;;9.20;6.05;;;;;;;;;;5048328;28;20029;-68
2021/07/07 03:22:14;;;;;;;6.97;6.32;;;;;;;;;;5047847;28;20029;-69
2021/07/07 03:24:39;;;;;;;6.40;5.82;;;;;;;;;;5040890;28;20022;-68
2021/07/07 03:27:04;;;;;;;9.10;8.30;;;;;;;;;;5029516;28;20024;-68
2021/07/07 03:29:29;;;;;;;8.82;8.02;;;;;;;;;;5027730;28;20029;-68
2021/07/07 03:31:55;;;;;;;7.57;6.88;;;;;;;;;;5027060;28;20024;-68
2021/07/07 03:34:20;;;;;;;13.90;9.65;;;;;;;;;;5027973;28;20128;-68
2021/07/07 03:36:45;;;;;;;9.95;8.77;;;;;;;;;;5028226;28;20017;-68
2021/07/07 03:39:10;;;;;;;16.00;11.48;;;;;;;;;;5029592;28;20475;-68
2021/07/07 03:41:36;;;;;;;9.30;8.60;;;;;;;;;;5026692;28;20487;-68
2021/07/07 03:44:01;;;;;;;9.00;8.10;;;;;;;;;;5027613;28;20514;-68
2021/07/07 03:46:26;;;;;;;12.38;8.90;;;;;;;;;;5026695;28;20033;-68
2021/07/07 03:48:51;;;;;;;8.88;8.05;;;;;;;;;;5027140;28;20523;-68
2021/07/07 03:51:17;;;;;;;6.40;5.80;;;;;;;;;;5030310;28;20697;-68
2021/07/07 03:53:42;;;;;;;8.20;7.50;;;;;;;;;;5027528;28;20038;-68
2021/07/07 03:56:07;;;;;;;7.03;6.40;;;;;;;;;;5027038;28;20045;-68
2021/07/07 03:58:32;;;;;;;7.95;7.35;;;;;;;;;;5041390;28;20061;-68
2021/07/07 04:00:58;;;;;;;6.28;4.30;;;;;;;;;;5047025;28;20120;-68
2021/07/07 04:03:23;;;;;;;5.07;4.63;;;;;;;;;;5049558;28;20025;-67
2021/07/07 04:05:48;;;;;;;5.50;5.00;;;;;;;;;;5047487;28;20413;-67
2021/07/07 04:08:13;;;;;;;8.50;7.70;;;;;;;;;;5047829;28;20372;-68
2021/07/07 04:10:38;;;;;;;9.35;6.78;;;;;;;;;;5032846;28;20034;-68
2021/07/07 04:13:04;;;;;;;6.13;5.20;;;;;;;;;;5026854;28;20025;-68
2021/07/07 04:15:29;;;;;;;5.93;4.60;;;;;;;;;;5030052;28;20172;-68
2021/07/07 04:17:54;;;;;;;4.95;4.55;;;;;;;;;;5026813;28;20041;-69
2021/07/07 04:20:20;;;;;;;7.82;4.93;;;;;;;;;;5027971;28;20026;-68
2021/07/07 04:22:45;;;;;;;7.07;4.60;;;;;;;;;;5027423;28;20042;-68
2021/07/07 04:25:11;;;;;;;5.10;4.70;;;;;;;;;;5025208;28;20048;-67
2021/07/07 04:27:37;;;;;;;7.90;4.32;;;;;;;;;;5027588;28;20017;-67
2021/07/07 04:30:04;;;;;;;3.92;3.53;;;;;;;;;;5030040;28;20032;-68
2021/07/07 04:32:29;;;;;;;4.38;3.97;;;;;;;;;;5025876;28;20397;-67
2021/07/07 04:34:55;;;;;;;6.25;5.28;;;;;;;;;;5026488;28;20033;-67
2021/07/07 04:37:20;;;;;;;4.32;3.92;;;;;;;;;;5026896;28;20030;-68
2021/07/07 04:39:45;;;;;;;4.13;3.65;;;;;;;;;;5029182;28;20018;-68
2021/07/07 04:42:11;;;;;;;3.80;3.50;;;;;;;;;;5032951;28;20029;-67
2021/07/07 04:44:36;;;;;;;4.50;4.07;;;;;;;;;;5030184;28;20041;-68
2021/07/07 04:47:01;;;;;;;4.78;4.32;;;;;;;;;;5030637;28;20033;-68
2021/07/07 04:49:26;;;;;;;5.45;4.93;;;;;;;;;;5031171;28;20032;-67
2021/07/07 04:51:52;;;;;;;5.32;4.90;;;;;;;;;;5030934;28;20025;-68
2021/07/07 04:54:17;;;;;;;4.50;4.10;;;;;;;;;;5032332;28;20067;-69
2021/07/07 04:56:44;;;;;;;4.43;3.67;;;;;;;;;;5030918;28;20220;-67
2021/07/07 04:59:10;;;;;;;3.55;3.25;;;;;;;;;;5011340;28;20495;-68
2021/07/07 05:01:37;;;;;;;4.53;4.13;;;;;;;;;;5011808;28;20022;-68
2021/07/07 05:04:02;;;;;;;4.10;3.78;;;;;;;;;;5010752;28;20026;-68
2021/07/07 05:06:28;;;;;;;3.97;3.50;;;;;;;;;;5012046;28;20025;-68
2021/07/07 05:08:54;;;;;;;2.72;2.53;;;;;;;;;;5011299;28;20038;-68
2021/07/07 05:11:19;;;;;;;4.10;3.75;;;;;;;;;;5026736;28;20025;-69
2021/07/07 05:13:44;;;;;;;3.20;2.92;;;;;;;;;;5028600;28;20042;-68
2021/07/07 05:16:11;;;;;;;2.80;2.13;;;;;;;;;;5030500;28;20037;-69
2021/07/07 05:18:36;;;;;;;2.97;1.80;;;;;;;;;;5030671;28;20025;-68
2021/07/07 05:21:01;;;;;;;1.42;1.30;;;;;;;;;;5033030;28;20018;-68
2021/07/07 05:23:27;;;;;;;1.92;1.30;;;;;;;;;;5030059;28;20473;-69
2021/07/07 05:25:52;;;;;;;1.05;1.05;;;;;;;;;;5029725;28;20057;-68
2021/07/07 05:28:17;;;;;;;1.35;1.25;;;;;;;;;;5030100;28;20520;-69
2021/07/07 05:30:42;;;;;;;2.00;1.17;;;;;;;;;;5030838;28;20438;-68
2021/07/07 05:33:09;;;;;;;1.85;1.23;;;;;;;;;;5031161;28;20013;-68
2021/07/07 05:35:35;;;;;;;1.20;1.10;;;;;;;;;;5030157;28;20414;-68
2021/07/07 05:38:00;;;;;;;1.45;1.02;;;;;;;;;;5030507;28;20048;-69
2021/07/07 05:40:26;;;;;;;1.15;0.80;;;;;;;;;;5029688;28;20033;-69
2021/07/07 05:42:54;;;;;;;1.75;0.85;;;;;;;;;;5029614;28;20101;-68
2021/07/07 05:45:20;;;;;;;0.95;0.90;;;;;;;;;;5032501;28;20060;-69
2021/07/07 05:47:46;;;;;;;1.15;0.90;;;;;;;;;;5030433;28;20505;-69
2021/07/07 05:50:11;;;;;;;2.25;0.70;;;;;;;;;;5029986;28;20061;-69
2021/07/07 05:52:36;;;;;;;1.30;0.98;;;;;;;;;;5029486;28;20422;-68
2021/07/07 05:55:01;;;;;;;3.45;1.13;;;;;;;;;;5029283;28;20040;-69
2021/07/07 05:57:39;;;;;;;1.40;1.13;;;;;;;;;;5032001;28;20040;-69
2021/07/07 06:00:09;;;;;;;1.77;1.20;;;;;;;;;;5030820;28;20113;-68
2021/07/07 06:02:34;;;;;;;1.20;1.00;;;;;;;;;;5028803;28;20407;-68
2021/07/07 06:05:00;;;;;;;2.53;1.02;;;;;;;;;;5030374;28;20037;-68
2021/07/07 06:07:25;;;;;;;1.30;1.17;;;;;;;;;;5029967;28;20041;-68
2021/07/07 06:09:50;;;;;;;2.58;1.00;;;;;;;;;;5027987;28;20044;-69
2021/07/07 06:12:16;;;;;;;1.30;0.90;;;;;;;;;;5036185;28;20044;-68
2021/07/07 06:14:41;;;;;;;2.17;1.23;;;;;;;;;;5049608;28;20041;-69
2021/07/07 06:17:06;;;;;;;1.57;1.10;;;;;;;;;;5049496;28;20384;-68
2021/07/07 06:19:32;;;;;;;3.60;1.40;;;;;;;;;;5049224;28;20792;-68
2021/07/07 06:22:00;;;;;;;2.13;1.67;;;;;;;;;;5049197;28;20493;-68
2021/07/07 06:24:25;;;;;;;1.60;1.50;;;;;;;;;;5051126;28;20013;-68
2021/07/07 06:26:50;;;;;;;1.42;1.00;;;;;;;;;;5044741;23;20135;-71
2021/07/07 06:29:17;;;;;;;1.42;1.33;;;;;;;;;;5025199;28;20104;-70
2021/07/07 06:31:43;;;;;;;3.55;1.50;;;;;;;;;;5024954;28;20475;-71
2021/07/07 06:34:08;;;;;;;3.60;1.90;;;;;;;;;;5008197;28;20056;-70
2021/07/07 06:36:33;;;;;;;2.10;1.38;;;;;;;;;;5011792;28;20507;-71
2021/07/07 06:38:59;;;;;;;1.27;1.13;;;;;;;;;;5009721;28;20499;-71
2021/07/07 06:41:24;;;;;;;1.25;1.15;;;;;;;;;;5023267;28;20848;-70
2021/07/07 06:43:49;;;;;;;4.47;1.30;;;;;;;;;;5027495;28;20044;-70
2021/07/07 06:46:15;;;;;;;2.58;1.00;;;;;;;;;;5029500;28;20021;-70
2021/07/07 06:48:40;;;;;;;1.40;1.30;;;;;;;;;;5029315;28;20075;-70
2021/07/07 06:51:05;;;;;;;3.37;1.03;;;;;;;;;;5030889;28;20471;-69
2021/07/07 06:53:30;;;;;;;1.23;0.80;;;;;;;;;;5028600;28;20300;-69
2021/07/07 06:55:55;;;;;;;1.20;1.10;;;;;;;;;;5025777;28;20277;-69
2021/07/07 06:58:20;;;;;;;1.10;1.00;;;;;;;;;;5024400;28;20338;-69
2021/07/07 07:00:46;;;;;;;1.92;0.90;;;;;;;;;;5009063;28;20040;-69
2021/07/07 07:03:11;;;;;;;2.63;1.02;;;;;;;;;;5010842;28;20025;-70
2021/07/07 07:05:36;;;;;;;1.10;1.00;;;;;;;;;;5009128;28;20542;-71
2021/07/07 07:08:02;;;;;;;2.00;1.02;;;;;;;;;;5009347;28;20069;-69
2021/07/07 07:10:27;;;;;;;1.38;1.17;;;;;;;;;;5013670;28;20025;-69
2021/07/07 07:12:52;;;;;;;2.20;1.30;;;;;;;;;;5043146;28;20037;-69
2021/07/07 07:15:18;;;;;;;2.55;1.17;;;;;;;;;;5031595;28;20019;-69
2021/07/07 07:17:43;;;;;;;1.90;1.20;;;;;;;;;;5028352;28;20128;-69
2021/07/07 07:20:10;;;;;;;3.30;1.83;;;;;;;;;;5029605;28;20268;-69
2021/07/07 07:22:36;;;;;;;1.30;1.20;;;;;;;;;;5026850;28;20029;-69
2021/07/07 07:25:01;;;;;;;1.65;1.30;;;;;;;;;;5026775;28;20084;-69
2021/07/07 07:27:26;;;;;;;4.47;1.48;;;;;;;;;;5030231;28;20104;-70
2021/07/07 07:29:52;;;;;;;1.20;1.10;;;;;;;;;;5027377;28;20068;-69
2021/07/07 07:32:17;;;;;;;1.17;1.10;;;;;;;;;;5026806;28;20337;-68
2021/07/07 07:34:42;;;;;;;1.63;1.30;;;;;;;;;;5028598;28;20363;-71
2021/07/07 07:37:13;;;;;;;1.10;1.00;;;;;;;;;;5027037;28;20051;-69
2021/07/07 07:39:44;;;;;;;1.85;1.20;;;;;;;;;;5028670;28;20083;-70
2021/07/07 07:42:11;;;;;;;2.42;1.13;;;;;;;;;;5028309;28;20018;-69
2021/07/07 07:44:37;;;;;;;2.60;1.30;;;;;;;;;;5028231;28;20053;-69
2021/07/07 07:47:02;;;;;;;4.50;1.65;;;;;;;;;;5028397;28;20041;-70
2021/07/07 07:49:28;;;;;;;1.80;1.27;;;;;;;;;;5027084;28;20025;-69
2021/07/07 07:51:53;;;;;;;1.83;1.02;;;;;;;;;;5028559;28;20079;-69
2021/07/07 07:54:18;;;;;;;2.60;1.13;;;;;;;;;;5030045;28;20052;-69
2021/07/07 07:56:43;;;;;;;1.20;1.10;;;;;;;;;;5027657;28;20569;-71
2021/07/07 07:59:08;;;;;;;2.53;1.42;;;;;;;;;;5026658;28;20053;-69
2021/07/07 08:01:34;;;;;;;2.03;1.50;;;;;;;;;;5026897;28;20064;-69
2021/07/07 08:04:00;;;;;;;1.73;1.10;;;;;;;;;;5026624;28;20116;-69
2021/07/07 08:06:25;;;;;;;1.25;1.15;;;;;;;;;;5030153;28;20039;-69
2021/07/07 08:08:53;;;;;;;5.17;1.87;;;;;;;;;;5026937;28;20030;-69
2021/07/07 08:11:18;;;;;;;0.80;0.68;;;;;;;;;;5027983;28;20308;-69
2021/07/07 08:13:44;;;;;;;2.87;1.40;;;;;;;;;;5028152;28;20041;-69
2021/07/07 08:16:09;;;;;;;1.63;1.05;;;;;;;;;;5030885;28;20260;-69
2021/07/07 08:18:34;;;;;;;4.10;1.20;;;;;;;;;;5033929;28;20056;-69
2021/07/07 08:20:59;;;;;;;1.60;1.20;;;;;;;;;;5031960;28;20092;-69
2021/07/07 08:23:25;;;;;;;2.03;1.00;;;;;;;;;;5031680;28;20091;-69
2021/07/07 08:25:50;;;;;;;1.48;1.15;;;;;;;;;;5031656;28;20362;-69
2021/07/07 08:28:15;;;;;;;1.17;1.08;;;;;;;;;;5031786;28;20125;-69
2021/07/07 08:30:41;;;;;;;2.60;1.00;;;;;;;;;;5031923;28;20029;-69
2021/07/07 08:33:06;;;;;;;2.80;1.33;;;;;;;;;;5033408;28;20045;-69
2021/07/07 08:35:31;;;;;;;2.75;1.40;;;;;;;;;;5031840;28;20061;-69
2021/07/07 08:37:57;;;;;;;2.55;1.50;;;;;;;;;;5030494;28;20535;-69
2021/07/07 08:40:24;;;;;;;3.20;1.20;;;;;;;;;;5031585;28;20103;-69
2021/07/07 08:42:49;;;;;;;3.92;1.27;;;;;;;;;;5030974;28;20256;-68
2021/07/07 08:45:16;;;;;;;1.65;1.20;;;;;;;;;;5033441;28;20063;-68
2021/07/07 08:47:43;;;;;;;2.65;1.52;;;;;;;;;;5031249;28;20033;-69
2021/07/07 08:50:10;;;;;;;3.90;1.27;;;;;;;;;;5030310;28;20533;-68
2021/07/07 08:52:39;;;;;;;1.80;1.50;;;;;;;;;;5031080;28;20142;-68
2021/07/07 08:55:09;;;;;;;1.77;0.90;;;;;;;;;;5031309;28;20034;-69
2021/07/07 08:57:42;;;;;;;2.05;1.15;;;;;;;;;;5032735;28;20394;-69
2021/07/07 09:00:08;;;;;;;0.93;0.82;;;;;;;;;;5031801;28;20046;-68
2021/07/07 09:02:44;;;;;;;0.85;0.60;;;;;;;;;;5029519;28;20030;-69
2021/07/07 09:05:09;;;;;;;3.03;0.90;;;;;;;;;;5029562;28;20124;-68
2021/07/07 09:07:37;;;;;;;3.42;1.25;;;;;;;;;;5029962;28;20445;-68
2021/07/07 09:10:02;;;;;;;1.08;1.00;;;;;;;;;;5031084;28;20022;-69
2021/07/07 09:12:29;;;;;;;1.73;0.85;;;;;;;;;;5031970;28;20010;-68
2021/07/07 09:15:02;;;;;;;2.55;1.10;;;;;;;;;;5026429;28;20042;-68
2021/07/07 09:17:35;;;;;;;0.90;0.90;;;;;;;;;;5010010;28;20503;-68
2021/07/07 09:20:13;;;;;;;0.85;0.85;;;;;;;;;;5011270;28;20026;-68
2021/07/07 09:22:38;;;;;;;1.48;1.38;;;;;;;;;;5009546;28;20362;-68
2021/07/07 09:25:04;;;;;;;2.10;1.40;;;;;;;;;;5010223;28;20018;-68
2021/07/07 09:27:33;;;;;;;1.52;1.35;;;;;;;;;;5023779;28;20288;-68
2021/07/07 09:30:02;;;;;;;1.08;0.98;;;;;;;;;;5029446;28;20033;-67
2021/07/07 09:32:28;;;;;;;2.17;1.05;;;;;;;;;;5030259;28;20037;-68
2021/07/07 09:34:58;;;;;;;1.75;1.20;;;;;;;;;;5029361;28;20095;-67
2021/07/07 09:37:25;;;;;;;2.15;1.00;;;;;;;;;;5030592;28;20486;-67
2021/07/07 09:39:51;;;;;;;3.83;1.20;;;;;;;;;;5029188;28;20032;-67
2021/07/07 09:42:29;;;;;;;1.70;0.90;;;;;;;;;;5026846;28;20555;-67
2021/07/07 09:44:57;;;;;;;1.05;1.05;;;;;;;;;;5028508;28;20033;-67
2021/07/07 09:47:22;;;;;;;1.58;1.25;;;;;;;;;;5030504;28;20037;-67
2021/07/07 09:49:48;;;;;;;2.85;1.40;;;;;;;;;;5029168;28;20034;-67
2021/07/07 09:52:14;;;;;;;2.40;1.48;;;;;;;;;;5028642;28;20065;-67
2021/07/07 09:54:40;;;;;;;2.33;1.58;;;;;;;;;;5030396;28;20024;-67
2021/07/07 09:57:05;;;;;;;2.42;1.80;;;;;;;;;;5031770;28;20010;-67
2021/07/07 09:59:30;;;;;;;1.83;1.58;;;;;;;;;;5030254;28;20041;-67
2021/07/07 10:01:55;;;;;;;1.60;1.48;;;;;;;;;;5030193;28;20092;-67
2021/07/07 10:04:23;;;;;;;2.10;1.77;;;;;;;;;;5029393;28;20017;-67
2021/07/07 10:06:48;;;;;;;3.10;1.90;;;;;;;;;;5030226;28;20028;-67
2021/07/07 10:09:13;;;;;;;4.30;1.70;;;;;;;;;;5032060;28;20092;-67
2021/07/07 10:11:39;;;;;;;2.95;1.88;;;;;;;;;;5029414;28;20518;-67
2021/07/07 10:14:08;;;;;;;3.78;1.83;;;;;;;;;;5029315;28;20029;-66
2021/07/07 10:16:33;;;;;;;3.13;1.85;;;;;;;;;;5030020;28;20026;-66
2021/07/07 10:18:58;;;;;;;2.80;2.05;;;;;;;;;;5029745;28;20052;-67
2021/07/07 10:21:23;;;;;;;3.33;1.67;;;;;;;;;;5030206;28;20021;-67
2021/07/07 10:23:50;;;;;;;1.60;1.50;;;;;;;;;;5029350;28;20279;-67
2021/07/07 10:26:15;;;;;;;2.40;1.60;;;;;;;;;;5024564;28;20650;-67
2021/07/07 10:28:41;;;;;;;1.70;1.60;;;;;;;;;;5025446;28;20053;-66
2021/07/07 10:31:07;;;;;;;3.88;1.50;;;;;;;;;;5028135;28;20097;-67
2021/07/07 10:33:34;;;;;;;2.80;1.63;;;;;;;;;;5030912;28;20548;-67
2021/07/07 10:36:18;;;;;;;1.77;1.67;;;;;;;;;;5029415;28;20034;-66
2021/07/07 10:38:54;;;;;;;2.30;1.60;;;;;;;;;;5029241;28;20049;-66
2021/07/07 10:41:38;;;;;;;2.13;1.50;;;;;;;;;;5028646;28;20030;-66
2021/07/07 10:44:03;;;;;;;2.03;1.75;;;;;;;;;;5028569;28;20606;-66
2021/07/07 10:46:47;;;;;;;1.85;1.35;;;;;;;;;;5029247;28;20052;-66
2021/07/07 10:49:16;;;;;;;1.70;1.23;;;;;;;;;;5029328;28;20017;-66
2021/07/07 10:51:44;;;;;;;1.40;1.20;;;;;;;;;;5028960;28;20599;-67
2021/07/07 10:54:19;;;;;;;1.58;1.30;;;;;;;;;;5030594;28;20032;-67
2021/07/07 10:56:45;;;;;;;1.60;1.50;;;;;;;;;;5028491;28;20029;-66
2021/07/07 10:59:33;;;;;;;2.95;1.33;;;;;;;;;;5028876;28;20046;-66
2021/07/07 11:02:03;;;;;;;1.70;1.60;;;;;;;;;;5020759;28;20128;-66
2021/07/07 11:04:32;;;;;;;1.95;1.70;;;;;;;;;;5028836;28;20418;-66
2021/07/07 11:07:17;;;;;;;1.40;1.30;;;;;;;;;;5029062;28;20379;-66
2021/07/07 11:09:42;;;;;;;1.60;1.50;;;;;;;;;;5028867;28;20108;-66
2021/07/07 11:12:07;;;;;;;2.30;1.60;;;;;;;;;;5030243;28;20100;-67
2021/07/07 11:14:33;;;;;;;2.10;1.50;;;;;;;;;;5028215;28;20311;-66
2021/07/07 11:17:01;;;;;;;2.03;1.60;;;;;;;;;;5028613;28;20300;-66
2021/07/07 11:19:36;;;;;;;2.53;1.30;;;;;;;;;;5027500;28;20618;-66
2021/07/07 11:22:01;;;;;;;1.65;1.40;;;;;;;;;;5028372;28;20025;-66
2021/07/07 11:24:26;;;;;;;2.47;1.50;;;;;;;;;;5030100;28;20524;-66
2021/07/07 11:26:54;;;;;;;6.40;2.13;;;;;;;;;;5027830;28;20053;-66
2021/07/07 11:29:20;;;;;;;1.55;1.30;;;;;;;;;;5026928;28;20268;-66
2021/07/07 11:31:45;;;;;;;1.23;1.00;;;;;;;;;;5027044;28;20033;-67
2021/07/07 11:34:11;;;;;;;1.38;1.10;;;;;;;;;;5027997;28;20041;-66
2021/07/07 11:36:36;;;;;;;1.20;1.10;;;;;;;;;;5030182;28;20421;-66
2021/07/07 11:39:05;;;;;;;1.35;1.20;;;;;;;;;;5028268;28;20050;-67
2021/07/07 11:41:30;;;;;;;2.03;1.27;;;;;;;;;;5026669;28;20112;-66
2021/07/07 11:43:55;;;;;;;2.13;1.20;;;;;;;;;;5024621;28;20508;-66
2021/07/07 11:46:20;;;;;;;4.07;1.30;;;;;;;;;;5028279;28;20029;-66
2021/07/07 11:48:48;;;;;;;1.80;1.10;;;;;;;;;;5027595;28;20024;-66
2021/07/07 11:51:16;;;;;;;1.10;0.98;;;;;;;;;;5030043;28;20035;-66
2021/07/07 11:53:43;;;;;;;1.48;1.08;;;;;;;;;;5027722;28;20034;-66
2021/07/07 11:56:13;;;;;;;2.03;1.30;;;;;;;;;;5028002;28;20034;-66
2021/07/07 11:58:49;;;;;;;2.05;1.08;;;;;;;;;;5023666;28;20036;-66
2021/07/07 12:01:15;;;;;;;1.10;1.00;;;;;;;;;;5028125;28;20540;-66
2021/07/07 12:03:41;;;;;;;1.50;1.38;;;;;;;;;;5027531;28;20025;-67
2021/07/07 12:06:07;;;;;;;2.45;0.60;;;;;;;;;;5028924;28;20067;-66
2021/07/07 12:08:34;;;;;;;1.92;0.90;;;;;;;;;;5026901;28;20064;-66
2021/07/07 12:11:05;;;;;;;0.75;0.75;;;;;;;;;;5028105;28;20057;-66
2021/07/07 12:13:32;;;;;;;2.17;1.00;;;;;;;;;;5027255;28;20124;-66
2021/07/07 12:16:15;;;;;;;1.15;1.00;;;;;;;;;;5027916;28;20017;-66
2021/07/07 12:18:42;;;;;;;0.80;0.70;;;;;;;;;;5028010;28;20471;-67
2021/07/07 12:21:08;;;;;;;1.23;1.13;;;;;;;;;;5029848;28;20442;-66
2021/07/07 12:23:43;;;;;;;1.38;1.00;;;;;;;;;;5025143;28;20498;-66
2021/07/07 12:26:09;;;;;;;0.90;0.90;;;;;;;;;;5026485;28;20065;-66
2021/07/07 12:28:34;;;;;;;1.52;1.10;;;;;;;;;;5027019;28;20044;-66
2021/07/07 12:30:59;;;;;;;0.80;0.80;;;;;;;;;;5027759;28;20485;-66
2021/07/07 12:33:28;;;;;;;0.90;0.90;;;;;;;;;;5029302;28;20079;-65
2021/07/07 12:35:54;;;;;;;1.20;0.93;;;;;;;;;;5026726;28;20083;-65
2021/07/07 12:38:19;;;;;;;1.10;0.98;;;;;;;;;;5027764;28;20057;-65
2021/07/07 12:40:51;;;;;;;1.00;1.00;;;;;;;;;;5027648;28;20395;-65
2021/07/07 12:43:25;;;;;;;1.63;1.20;;;;;;;;;;5026594;28;20338;-66
2021/07/07 12:46:00;;;;;;;2.03;1.00;;;;;;;;;;5027697;28;20112;-65
2021/07/07 12:48:25;;;;;;;1.25;1.00;;;;;;;;;;5029763;28;20523;-65
2021/07/07 12:50:51;;;;;;;1.00;1.00;;;;;;;;;;5027523;28;20069;-66
2021/07/07 12:53:30;;;;;;;1.75;1.17;;;;;;;;;;5026465;28;20318;-66
2021/07/07 12:56:04;;;;;;;3.42;0.93;;;;;;;;;;5026109;28;20441;-66
2021/07/07 12:58:30;;;;;;;1.83;1.05;;;;;;;;;;5027245;28;20049;-66
2021/07/07 13:00:55;;;;;;;0.77;0.77;;;;;;;;;;5030012;28;20028;-65
2021/07/07 13:03:22;;;;;;;1.08;1.08;;;;;;;;;;5031416;28;20075;-66
2021/07/07 13:05:52;;;;;;;1.23;0.90;;;;;;;;;;5030664;28;20033;-66
2021/07/07 13:08:18;;;;;;;1.75;1.05;;;;;;;;;;5030736;28;20030;-66
2021/07/07 13:10:48;;;;;;;0.98;0.98;;;;;;;;;;5029477;28;20502;-66
2021/07/07 13:13:21;;;;;;;1.13;1.00;;;;;;;;;;5029961;28;20038;-66
2021/07/07 13:16:05;;;;;;;1.75;0.77;;;;;;;;;;5029728;28;20123;-66
2021/07/07 13:18:31;;;;;;;1.65;0.90;;;;;;;;;;5032937;28;20029;-66
2021/07/07 13:20:57;;;;;;;1.38;1.00;;;;;;;;;;5030388;28;20029;-66
2021/07/07 13:23:29;;;;;;;2.50;1.02;;;;;;;;;;5030167;28;20030;-66
2021/07/07 13:26:13;;;;;;;2.53;1.15;;;;;;;;;;5030442;28;20022;-66
2021/07/07 13:28:40;;;;;;;4.63;1.00;;;;;;;;;;5027372;28;20121;-66
2021/07/07 13:31:12;;;;;;;1.98;1.10;;;;;;;;;;5030191;28;20029;-66
2021/07/07 13:33:37;;;;;;;1.80;1.05;;;;;;;;;;5032058;28;20021;-66
2021/07/07 13:36:03;;;;;;;1.13;1.00;;;;;;;;;;5030511;28;20033;-66
2021/07/07 13:38:28;;;;;;;1.02;0.90;;;;;;;;;;5029009;28;20180;-66
2021/07/07 13:40:53;;;;;;;2.13;0.85;;;;;;;;;;5030178;28;20029;-66
2021/07/07 13:43:21;;;;;;;2.20;0.80;;;;;;;;;;5027352;28;20030;-66
2021/07/07 13:45:46;;;;;;;0.75;0.75;;;;;;;;;;5029809;28;20264;-66
2021/07/07 13:48:11;;;;;;;3.05;0.73;;;;;;;;;;5032214;28;20031;-67
2021/07/07 13:50:37;;;;;;;1.07;0.90;;;;;;;;;;5030359;28;20057;-66
2021/07/07 13:53:02;;;;;;;0.88;0.73;;;;;;;;;;5029758;28;20276;-66
2021/07/07 13:55:27;;;;;;;0.90;0.80;;;;;;;;;;5030013;28;20112;-67
2021/07/07 13:57:53;;;;;;;1.35;0.80;;;;;;;;;;5029683;28;20422;-66
2021/07/07 14:00:18;;;;;;;0.80;0.73;;;;;;;;;;5031884;28;20025;-66
2021/07/07 14:02:43;;;;;;;0.98;0.70;;;;;;;;;;5029674;28;20269;-66
2021/07/07 14:05:09;;;;;;;3.00;1.00;;;;;;;;;;5029631;28;20402;-68
2021/07/07 14:07:34;;;;;;;4.82;1.13;;;;;;;;;;5030124;28;20803;-67
2021/07/07 14:09:59;;;;;;;1.47;0.80;;;;;;;;;;5029891;28;22251;-67
2021/07/07 14:12:24;;;;;;;1.73;1.13;;;;;;;;;;5030291;28;20323;-67
2021/07/07 14:14:49;;;;;;;1.65;1.02;;;;;;;;;;5029337;28;20280;-67
2021/07/07 14:17:15;;;;;;;2.00;0.82;;;;;;;;;;5029577;28;20034;-67
2021/07/07 14:19:40;;;;;;;2.38;1.58;;;;;;;;;;5028255;28;20132;-67
2021/07/07 14:22:06;;;;;;;1.30;0.90;;;;;;;;;;5029306;28;20057;-67
2021/07/07 14:24:31;;;;;;;1.02;0.93;;;;;;;;;;5031313;28;20554;-67
2021/07/07 14:26:56;;;;;;;0.75;0.70;;;;;;;;;;5029496;28;20124;-67
2021/07/07 14:29:21;;;;;;;0.93;0.93;;;;;;;;;;5028872;28;20116;-67
2021/07/07 14:31:47;;;;;;;1.45;1.00;;;;;;;;;;5029053;28;20407;-67
2021/07/07 14:34:17;;;;;;;1.70;1.00;;;;;;;;;;5028676;28;20467;-67
2021/07/07 14:36:42;;;;;;;3.17;1.38;;;;;;;;;;5029513;28;20347;-67